Time;durP1;ratioP1;P1;durP2;ratioP2;P2;SDS_P1;SDS_P2;PMS_P1;PMS_P2;Temp;Humidity;BMP_temperature;BMP_pressure;BME280_temperature;BME280_humidity;BME280_pressure;Samples;Min_cycle;Max_cycle;Signal;HPM_P1;HPM_P2
2022/02/09 00:05:41;;;;;;;;;;;;;;;;;;5003826;28;19927;-57
2022/02/09 00:07:53;;;;;;;;;;;;;;;;;;5002834;28;19926;-54
2022/02/09 00:10:17;;;;;;;;;;;;;;;;;;5004992;28;20117;-55
2022/02/09 00:12:50;;;;;;;;;;;;;;;;;;5004413;28;20004;-55
2022/02/09 00:15:30;;;;;;;;;;;;;;;;;;5004115;28;19922;-56
2022/02/09 01:12:34;;;;;;;;;;;;;;;;;;4998622;28;19933;-55
2022/02/09 01:39:45;;;;;;;;;;;;;;;;;;4998563;28;19967;-56
2022/02/09 01:55:28;;;;;;;;;;;;;;;;;;5001827;28;19991;-57
2022/02/09 01:57:53;;;;;;;;;;;;;;;;;;5005759;28;19925;-56
2022/02/09 02:00:18;;;;;;;;;;;;;;;;;;5002444;28;20054;-56
2022/02/09 02:02:44;;;;;;;;;;;;;;;;;;4993329;28;19948;-57
2022/02/09 02:05:09;;;;;;;;;;;;;;;;;;4999361;28;20768;-56
2022/02/09 02:07:53;;;;;;;;;;;;;;;;;;4998767;28;20341;-55
2022/02/09 02:10:27;;;;;;;;;;;;;;;;;;4996810;28;19953;-57
2022/02/09 02:13:00;;;;;;;;;;;;;;;;;;5000011;28;20389;-57
2022/02/09 02:16:16;;;;;;;;;;;;;;;;;;4997571;28;21737;-57
2022/02/09 02:18:14;;;;;;;;;;;;;;;;;;4998028;28;20329;-53
2022/02/09 02:31:33;;;;;;;;;;;;;;;;;;4998327;28;19921;-54
2022/02/09 03:11:48;;;;;;;;;;;;;;;;;;4995776;28;19926;-55
2022/02/09 03:14:23;;;;;;;;;;;;;;;;;;4997799;28;20010;-55
2022/02/09 03:16:57;;;;;;;;;;;;;;;;;;4996876;28;19952;-54
2022/02/09 03:25:16;;;;;;;;;;;;;;;;;;4996254;28;19992;-55
2022/02/09 03:27:49;;;;;;;;;;;;;;;;;;4996545;28;20295;-55
2022/02/09 03:31:06;;;;;;;;;;;;;;;;;;4995155;28;19934;-56
2022/02/09 03:44:16;;;;;;;;;;;;;;;;;;4996343;28;20305;-56
2022/02/09 03:49:40;;;;;;;;;;;;;;;;;;4996079;28;19983;-56
2022/02/09 03:52:31;;;;;;;;;;;;;;;;;;4998160;28;19999;-57
2022/02/09 03:55:11;;;;;;;;;;;;;;;;;;4996181;28;19925;-56
2022/02/09 03:57:45;;;;;;;;;;;;;;;;;;5004512;28;20734;-56
2022/02/09 04:00:10;;;;;;;;;;;;;;;;;;4990207;28;20008;-55
2022/02/09 04:02:36;;;;;;;;;;;;;;;;;;4996490;28;20044;-53
2022/02/09 04:05:02;;;;;;;;;;;;;;;;;;4997068;28;19925;-52
2022/02/09 04:07:27;;;;;;;;;;;;;;;;;;4996082;28;19922;-55
2022/02/09 04:09:57;;;;;;;;;;;;;;;;;;4996059;28;19933;-56
2022/02/09 04:17:40;;;;;;;;;;;;;;;;;;4996221;28;19930;-56
2022/02/09 04:20:36;;;;;;;;;;;;;;;;;;4994766;28;19925;-55
2022/02/09 04:36:26;;;;;;;;;;;;;;;;;;4997552;28;19928;-56
2022/02/09 04:41:31;;;;;;;;;;;;;;;;;;5000103;28;20032;-56
2022/02/09 04:52:50;;;;;;;;;;;;;;;;;;4998164;28;19929;-56
2022/02/09 04:57:55;;;;;;;;;;;;;;;;;;4996976;28;19921;-53
2022/02/09 05:24:59;;;;;;;;;;;;;;;;;;4980942;28;19930;-55
2022/02/09 05:27:47;;;;;;;;;;;;;;;;;;4980805;28;20410;-56
2022/02/09 05:30:09;;;;;;;;;;;;;;;;;;4980772;28;19936;-55
2022/02/09 05:32:35;;;;;;;;;;;;;;;;;;4982090;28;19929;-56
2022/02/09 05:35:00;;;;;;;;;;;;;;;;;;4987428;28;19922;-56
2022/02/09 05:37:26;;;;;;;;;;;;;;;;;;4996150;28;19921;-53
2022/02/09 05:39:51;;;;;;;;;;;;;;;;;;4995255;28;19932;-54
2022/02/09 05:42:17;;;;;;;;;;;;;;;;;;4981100;28;19926;-56
2022/02/09 05:44:42;;;;;;;;;;;;;;;;;;4978901;28;19921;-56
2022/02/09 05:52:32;;;;;;;;;;;;;;;;;;4979450;28;19928;-55
2022/02/09 05:55:18;;;;;;;;;;;;;;;;;;5005939;28;19932;-55
2022/02/09 05:57:47;;;;;;;;;;;;;;;;;;5006565;28;19960;-54
2022/02/09 06:00:14;;;;;;;;;;;;;;;;;;5005333;28;20603;-55
2022/02/09 06:02:39;;;;;;;;;;;;;;;;;;4979854;28;19929;-56
2022/02/09 06:05:05;;;;;;;;;;;;;;;;;;4978844;28;19957;-55
2022/02/09 06:07:30;;;;;;;;;;;;;;;;;;4978744;28;19921;-55
2022/02/09 06:09:56;;;;;;;;;;;;;;;;;;4979840;28;20408;-55
2022/02/09 06:12:29;;;;;;;;;;;;;;;;;;4979470;28;21547;-55
2022/02/09 06:15:34;;;;;;;;;;;;;;;;;;4984283;28;19941;-54
2022/02/09 06:20:24;;;;;;;;;;;;;;;;;;4978601;28;19976;-55
2022/02/09 06:22:49;;;;;;;;;;;;;;;;;;4980649;28;19926;-55
2022/02/09 06:25:15;;;;;;;;;;;;;;;;;;4982537;28;20081;-55
2022/02/09 06:27:40;;;;;;;;;;;;;;;;;;4991431;28;19926;-55
2022/02/09 06:30:06;;;;;;;;;;;;;;;;;;4981590;28;19930;-54
2022/02/09 06:32:31;;;;;;;;;;;;;;;;;;4979498;28;19921;-56
2022/02/09 06:34:58;;;;;;;;;;;;;;;;;;4972814;28;20033;-56
2022/02/09 06:37:34;;;;;;;;;;;;;;;;;;4978429;28;20485;-54
2022/02/09 06:40:01;;;;;;;;;;;;;;;;;;4979000;28;19936;-52
2022/02/09 06:42:29;;;;;;;;;;;;;;;;;;4980167;28;19926;-53
2022/02/09 06:45:02;;;;;;;;;;;;;;;;;;4981958;28;20049;-55
2022/02/09 06:47:29;;;;;;;;;;;;;;;;;;4981709;28;19925;-55
2022/02/09 06:50:01;;;;;;;;;;;;;;;;;;4980907;28;19941;-55
2022/02/09 06:52:27;;;;;;;;;;;;;;;;;;4980184;28;19948;-55
2022/02/09 06:55:10;;;;;;;;;;;;;;;;;;4978330;28;19922;-54
2022/02/09 07:00:16;;;;;;;;;;;;;;;;;;4977802;28;19922;-53
2022/02/09 07:02:43;;;;;;;;;;;;;;;;;;4978393;28;20461;-54
2022/02/09 07:05:09;;;;;;;;;;;;;;;;;;4978248;28;20401;-55
2022/02/09 07:07:34;;;;;;;;;;;;;;;;;;4977615;28;19921;-55
2022/02/09 07:10:00;;;;;;;;;;;;;;;;;;4977548;28;19930;-54
2022/02/09 07:12:25;;;;;;;;;;;;;;;;;;4977812;28;19976;-53
2022/02/09 07:14:53;;;;;;;;;;;;;;;;;;4978851;28;20236;-55
2022/02/09 07:17:18;;;;;;;;;;;;;;;;;;4977850;28;19921;-55
2022/02/09 07:19:50;;;;;;;;;;;;;;;;;;4976704;28;19968;-53
2022/02/09 07:22:23;;;;;;;;;;;;;;;;;;4994105;28;19928;-54
2022/02/09 07:24:49;;;;;;;;;;;;;;;;;;4997164;28;19933;-54
2022/02/09 07:29:58;;;;;;;;;;;;;;;;;;4996097;28;20416;-55
2022/02/09 07:32:24;;;;;;;;;;;;;;;;;;4997581;28;19929;-55
2022/02/09 07:34:49;;;;;;;;;;;;;;;;;;4997142;28;20406;-56
2022/02/09 07:37:15;;;;;;;;;;;;;;;;;;4997796;28;20386;-53
2022/02/09 07:39:40;;;;;;;;;;;;;;;;;;4995541;28;19980;-55
2022/02/09 07:42:08;;;;;;;;;;;;;;;;;;4997177;28;19971;-54
2022/02/09 07:44:51;;;;;;;;;;;;;;;;;;4996272;28;19945;-54
2022/02/09 07:50:45;;;;;;;;;;;;;;;;;;4996187;28;19991;-54
2022/02/09 07:52:54;;;;;;;;;;;;;;;;;;4998243;28;19970;-54
2022/02/09 07:55:19;;;;;;;;;;;;;;;;;;4996195;28;20358;-55
2022/02/09 07:57:45;;;;;;;;;;;;;;;;;;4998876;28;20370;-52
2022/02/09 08:00:13;;;;;;;;;;;;;;;;;;4996885;28;20007;-52
2022/02/09 08:02:38;;;;;;;;;;;;;;;;;;4996541;28;19925;-54
2022/02/09 08:05:04;;;;;;;;;;;;;;;;;;4999534;28;19924;-55
2022/02/09 08:07:29;;;;;;;;;;;;;;;;;;5015143;28;19921;-53
2022/02/09 08:09:57;;;;;;;;;;;;;;;;;;4996227;28;20852;-51
2022/02/09 08:33:17;;;;;;;;;;;;;;;;;;5001081;28;19922;-55
2022/02/09 08:35:42;;;;;;;;;;;;;;;;;;4997738;28;20021;-53
2022/02/09 08:38:08;;;;;;;;;;;;;;;;;;5000424;28;20232;-55
2022/02/09 08:40:35;;;;;;;;;;;;;;;;;;4999775;28;20564;-55
2022/02/09 08:43:00;;;;;;;;;;;;;;;;;;5000144;28;19925;-54
2022/02/09 08:45:26;;;;;;;;;;;;;;;;;;4999486;28;19921;-55
2022/02/09 08:47:51;;;;;;;;;;;;;;;;;;5000279;28;20278;-55
2022/02/09 08:50:17;;;;;;;;;;;;;;;;;;4991532;28;19932;-56
2022/02/09 08:52:42;;;;;;;;;;;;;;;;;;5000578;28;20024;-54
2022/02/09 08:55:08;;;;;;;;;;;;;;;;;;5001027;28;20013;-54
2022/02/09 08:57:34;;;;;;;;;;;;;;;;;;5000771;28;20461;-52
2022/02/09 09:00:07;;;;;;;;;;;;;;;;;;5000439;28;19983;-54
2022/02/09 09:02:34;;;;;;;;;;;;;;;;;;4996020;28;20342;-51
2022/02/09 09:05:11;;;;;;;;;;;;;;;;;;5001347;28;20039;-54
2022/02/09 09:07:38;;;;;;;;;;;;;;;;;;5000420;28;21584;-52
2022/02/09 09:10:13;;;;;;;;;;;;;;;;;;5001135;28;19937;-54
2022/02/09 09:18:36;;;;;;;;;;;;;;;;;;5001055;28;19933;-51
2022/02/09 10:01:48;;;;;;;;;;;;;;;;;;4998935;28;19929;-53
2022/02/09 10:04:21;;;;;;;;;;;;;;;;;;4998912;28;19973;-56
2022/02/09 10:33:48;;;;;;;;;;;;;;;;;;4997561;28;19922;-54
2022/02/09 10:36:17;;;;;;;;;;;;;;;;;;5000164;28;20013;-58
2022/02/09 10:38:44;;;;;;;;;;;;;;;;;;4995931;28;19922;-53
2022/02/09 10:41:10;;;;;;;;;;;;;;;;;;4999709;28;19929;-55
2022/02/09 10:43:37;;;;;;;;;;;;;;;;;;4997597;28;19936;-57
2022/02/09 10:46:02;;;;;;;;;;;;;;;;;;4997565;28;20823;-54
2022/02/09 10:48:30;;;;;;;;;;;;;;;;;;4990707;28;19929;-55
2022/02/09 10:50:55;;;;;;;;;;;;;;;;;;4997827;28;19959;-55
2022/02/09 10:53:21;;;;;;;;;;;;;;;;;;4997701;28;19925;-54
2022/02/09 10:55:46;;;;;;;;;;;;;;;;;;4997543;28;19921;-55
2022/02/09 10:58:12;;;;;;;;;;;;;;;;;;4998915;28;20379;-55
2022/02/09 11:00:43;;;;;;;;;;;;;;;;;;4997663;28;19918;-52
2022/02/09 11:03:08;;;;;;;;;;;;;;;;;;4997633;28;20376;-54
2022/02/09 11:05:34;;;;;;;;;;;;;;;;;;4998141;28;19984;-54
2022/02/09 11:07:59;;;;;;;;;;;;;;;;;;4997549;28;20291;-55
2022/02/09 11:10:25;;;;;;;;;;;;;;;;;;4995913;28;19941;-55
2022/02/09 11:12:52;;;;;;;;;;;;;;;;;;4997656;28;20769;-54
2022/02/09 11:15:20;;;;;;;;;;;;;;;;;;4997378;28;20351;-55
2022/02/09 11:17:47;;;;;;;;;;;;;;;;;;4991193;28;19921;-54
2022/02/09 11:20:13;;;;;;;;;;;;;;;;;;4997498;28;19921;-55
2022/02/09 11:22:38;;;;;;;;;;;;;;;;;;4989966;28;20219;-55
2022/02/09 11:25:03;;;;;;;;;;;;;;;;;;4996536;28;19933;-55
2022/02/09 11:27:34;;;;;;;;;;;;;;;;;;5003925;28;19976;-55
2022/02/09 11:30:03;;;;;;;;;;;;;;;;;;4996573;28;20319;-58
2022/02/09 11:37:40;;;;;;;;;;;;;;;;;;4997426;28;20315;-56
2022/02/09 11:40:06;;;;;;;;;;;;;;;;;;4997030;28;19925;-55
2022/02/09 11:45:23;;;;;;;;;;;;;;;;;;4996775;28;19934;-55
2022/02/09 11:50:53;;;;;;;;;;;;;;;;;;5017390;28;19930;-53
2022/02/09 11:59:24;;;;;;;;;;;;;;;;;;4996086;28;19922;-54
2022/02/09 12:01:35;;;;;;;;;;;;;;;;;;4996903;28;19922;-54
2022/02/09 12:11:59;;;;;;;;;;;;;;;;;;4996743;28;20271;-55
2022/02/09 12:14:31;;;;;;;;;;;;;;;;;;4995634;28;19983;-53
2022/02/09 12:19:50;;;;;;;;;;;;;;;;;;4995560;28;20480;-55
2022/02/09 12:22:15;;;;;;;;;;;;;;;;;;4997034;28;20374;-54
2022/02/09 12:24:41;;;;;;;;;;;;;;;;;;4997593;28;19933;-53
2022/02/09 12:27:06;;;;;;;;;;;;;;;;;;4997097;28;19921;-55
2022/02/09 12:29:33;;;;;;;;;;;;;;;;;;4994751;28;20007;-54
2022/02/09 12:31:58;;;;;;;;;;;;;;;;;;4997604;28;19921;-55
2022/02/09 12:34:24;;;;;;;;;;;;;;;;;;4995570;28;20024;-56
2022/02/09 12:36:50;;;;;;;;;;;;;;;;;;4997627;28;19928;-56
2022/02/09 12:39:15;;;;;;;;;;;;;;;;;;4994640;28;19928;-56
2022/02/09 12:41:41;;;;;;;;;;;;;;;;;;4996106;28;19922;-53
2022/02/09 12:44:09;;;;;;;;;;;;;;;;;;4996311;28;19921;-57
2022/02/09 12:46:35;;;;;;;;;;;;;;;;;;4996084;28;20076;-56
2022/02/09 12:49:00;;;;;;;;;;;;;;;;;;5003276;28;19929;-55
2022/02/09 12:51:26;;;;;;;;;;;;;;;;;;4995545;28;19929;-56
2022/02/09 12:53:51;;;;;;;;;;;;;;;;;;4990571;28;20393;-56
2022/02/09 12:56:17;;;;;;;;;;;;;;;;;;4996256;28;19968;-54
2022/02/09 12:58:42;;;;;;;;;;;;;;;;;;4994464;28;20352;-56
2022/02/09 13:01:08;;;;;;;;;;;;;;;;;;4997261;28;19968;-55
2022/02/09 13:03:33;;;;;;;;;;;;;;;;;;4998666;28;19927;-56
2022/02/09 13:06:03;;;;;;;;;;;;;;;;;;5000238;28;19964;-54
2022/02/09 13:08:28;;;;;;;;;;;;;;;;;;4998336;28;20375;-55
2022/02/09 13:10:56;;;;;;;;;;;;;;;;;;4998323;28;20004;-54
2022/02/09 13:13:28;;;;;;;;;;;;;;;;;;4993412;28;19921;-54
2022/02/09 13:16:08;;;;;;;;;;;;;;;;;;4993793;28;19925;-55
2022/02/09 13:19:02;;;;;;;;;;;;;;;;;;4997938;28;19971;-55
2022/02/09 14:11:04;;;;;;;;;;;;;;;;;;4996852;28;20112;-55
2022/02/09 14:34:03;;;;;;;;;;;;;;;;;;4997134;28;19928;-55
2022/02/09 14:52:20;;;;;;;;;;;;;;;;;;4987892;28;20799;-53
2022/02/09 14:57:26;;;;;;;;;;;;;;;;;;4978173;28;20375;-54
2022/02/09 15:05:40;;;;;;;;;;;;;;;;;;4988286;28;19928;-54
2022/02/09 15:08:10;;;;;;;;;;;;;;;;;;4982686;28;19922;-53
2022/02/09 15:10:44;;;;;;;;;;;;;;;;;;4978285;28;19930;-55
2022/02/09 15:21:26;;;;;;;;;;;;;;;;;;4977956;28;19954;-55
2022/02/09 15:23:52;;;;;;;;;;;;;;;;;;4984079;28;19949;-52
2022/02/09 15:26:22;;;;;;;;;;;;;;;;;;4978677;28;19972;-55
2022/02/09 15:28:49;;;;;;;;;;;;;;;;;;4984702;28;19934;-54
2022/02/09 15:31:25;;;;;;;;;;;;;;;;;;4978468;28;19929;-54
2022/02/09 15:34:02;;;;;;;;;;;;;;;;;;4998030;28;19933;-56
2022/02/09 15:36:48;;;;;;;;;;;;;;;;;;4989048;28;20030;-53
2022/02/09 15:39:14;;;;;;;;;;;;;;;;;;4977883;28;19957;-55
2022/02/09 15:42:01;;;;;;;;;;;;;;;;;;4977630;28;19922;-56
2022/02/09 16:17:30;;;;;;;;;;;;;;;;;;4977269;28;19952;-55
2022/02/09 16:36:30;;;;;;;;;;;;;;;;;;4992779;28;19976;-55
2022/02/09 16:38:38;;;;;;;;;;;;;;;;;;4979793;28;19948;-53
2022/02/09 16:44:19;;;;;;;;;;;;;;;;;;4987734;28;19979;-54
2022/02/09 16:46:52;;;;;;;;;;;;;;;;;;4997185;28;19932;-53
2022/02/09 16:49:56;;;;;;;;;;;;;;;;;;4980081;28;19929;-55
2022/02/09 16:52:22;;;;;;;;;;;;;;;;;;4991795;28;19933;-53
2022/02/09 16:55:09;;;;;;;;;;;;;;;;;;4987947;28;20517;-56
2022/02/09 17:21:14;;;;;;;;;;;;;;;;;;4988325;28;19937;-56
2022/02/09 17:23:40;;;;;;;;;;;;;;;;;;4979609;28;19925;-54
2022/02/09 17:26:05;;;;;;;;;;;;;;;;;;4980286;28;19944;-57
2022/02/09 17:28:31;;;;;;;;;;;;;;;;;;4978246;28;19928;-55
2022/02/09 17:36:04;;;;;;;;;;;;;;;;;;4979520;28;19928;-56
2022/02/09 17:39:27;;;;;;;;;;;;;;;;;;4979298;28;19925;-56
2022/02/09 18:00:32;;;;;;;;;;;;;;;;;;5007345;28;19941;-57
2022/02/09 18:02:57;;;;;;;;;;;;;;;;;;4989741;28;19922;-55
2022/02/09 18:05:29;;;;;;;;;;;;;;;;;;4979183;28;19922;-55
2022/02/09 18:08:04;;;;;;;;;;;;;;;;;;4978463;28;19980;-57
2022/02/09 18:29:26;;;;;;;;;;;;;;;;;;4982199;28;19983;-54
2022/02/09 18:40:40;;;;;;;;;;;;;;;;;;4979053;28;21988;-56
2022/02/09 19:03:37;;;;;;;;;;;;;;;;;;4979998;28;19926;-57
2022/02/09 19:06:05;;;;;;;;;;;;;;;;;;4992270;28;20411;-55
2022/02/09 19:16:55;;;;;;;;;;;;;;;;;;4978097;28;19926;-57
2022/02/09 19:33:10;;;;;;;;;;;;;;;;;;4977180;28;19921;-54
2022/02/09 19:48:42;;;;;;;;;;;;;;;;;;4997018;28;19944;-55
2022/02/09 19:56:22;;;;;;;;;;;;;;;;;;4975152;28;20374;-56
2022/02/09 20:01:20;;;;;;;;;;;;;;;;;;4998966;28;19931;-56
2022/02/09 20:03:46;;;;;;;;;;;;;;;;;;4986977;28;19926;-56
2022/02/09 20:06:11;;;;;;;;;;;;;;;;;;4978165;28;19922;-55
2022/02/09 20:08:37;;;;;;;;;;;;;;;;;;4977059;28;19926;-56
2022/02/09 20:11:03;;;;;;;;;;;;;;;;;;4994176;28;19968;-56
2022/02/09 20:13:28;;;;;;;;;;;;;;;;;;5002206;28;19960;-57
2022/02/09 20:15:54;;;;;;;;;;;;;;;;;;5002661;28;19933;-56
2022/02/09 20:18:19;;;;;;;;;;;;;;;;;;5000345;28;19926;-54
2022/02/09 20:20:45;;;;;;;;;;;;;;;;;;5002367;28;20055;-56
2022/02/09 20:23:12;;;;;;;;;;;;;;;;;;5001834;28;19975;-56
2022/02/09 20:25:37;;;;;;;;;;;;;;;;;;4992922;28;19945;-57
2022/02/09 20:28:05;;;;;;;;;;;;;;;;;;4990016;28;20875;-56
2022/02/09 20:30:36;;;;;;;;;;;;;;;;;;4980264;28;19996;-55
2022/02/09 20:33:07;;;;;;;;;;;;;;;;;;4980782;28;19921;-55
2022/02/09 20:35:35;;;;;;;;;;;;;;;;;;4980446;28;19952;-56
2022/02/09 20:38:00;;;;;;;;;;;;;;;;;;4986309;28;19941;-57
2022/02/09 20:40:46;;;;;;;;;;;;;;;;;;4982593;28;19930;-57
2022/02/09 20:43:13;;;;;;;;;;;;;;;;;;4989227;28;19991;-56
2022/02/09 20:45:46;;;;;;;;;;;;;;;;;;4995647;28;20458;-56
2022/02/09 20:48:15;;;;;;;;;;;;;;;;;;4996203;28;19921;-56
2022/02/09 20:50:40;;;;;;;;;;;;;;;;;;4996030;28;19949;-57
2022/02/09 20:53:06;;;;;;;;;;;;;;;;;;4994692;28;19925;-56
2022/02/09 20:55:32;;;;;;;;;;;;;;;;;;5000350;28;19925;-55
2022/02/09 20:57:58;;;;;;;;;;;;;;;;;;5000074;28;19933;-57
2022/02/09 21:05:55;;;;;;;;;;;;;;;;;;4999274;28;19927;-56
2022/02/09 21:10:56;;;;;;;;;;;;;;;;;;5000161;28;19941;-57
2022/02/09 21:19:03;;;;;;;;;;;;;;;;;;4997840;28;19925;-56
2022/02/09 21:56:15;;;;;;;;;;;;;;;;;;4997941;28;19922;-54
2022/02/09 21:59:40;;;;;;;;;;;;;;;;;;4998315;28;20398;-55
2022/02/09 22:01:55;;;;;;;;;;;;;;;;;;4997864;28;20020;-56
2022/02/09 22:26:27;;;;;;;;;;;;;;;;;;4997786;28;20098;-56
2022/02/09 22:28:37;;;;;;;;;;;;;;;;;;4995876;28;19925;-56
2022/02/09 22:31:28;;;;;;;;;;;;;;;;;;4991343;28;19996;-57
2022/02/09 22:47:57;;;;;;;;;;;;;;;;;;4995983;28;20346;-56
2022/02/09 22:50:45;;;;;;;;;;;;;;;;;;5004490;28;20014;-54
2022/02/09 22:55:54;;;;;;;;;;;;;;;;;;4997518;28;19999;-54
2022/02/09 22:58:23;;;;;;;;;;;;;;;;;;4997157;28;19922;-57
2022/02/09 23:03:20;;;;;;;;;;;;;;;;;;4996822;28;19960;-58
2022/02/09 23:09:04;;;;;;;;;;;;;;;;;;4995247;28;20009;-56
2022/02/09 23:11:41;;;;;;;;;;;;;;;;;;4996335;28;19930;-58
2022/02/09 23:54:51;;;;;;;;;;;;;;;;;;4996251;28;19932;-57
